createdAt,value
2023-10-04T00:00:17.240Z,88.000000
2023-10-04T00:05:16.920Z,88.000000
2023-10-04T00:10:17.086Z,89.000000
2023-10-04T00:15:17.078Z,89.000000
2023-10-04T00:20:17.012Z,89.000000
2023-10-04T00:25:16.991Z,89.000000
2023-10-04T00:30:17.186Z,88.000000
2023-10-04T00:35:16.962Z,88.000000
2023-10-04T00:40:17.245Z,89.000000
2023-10-04T00:45:17.007Z,89.000000
2023-10-04T00:50:17.121Z,90.000000
2023-10-04T00:55:17.018Z,89.000000
2023-10-04T01:00:17.000Z,90.000000
2023-10-04T01:05:17.496Z,90.000000
2023-10-04T01:10:17.235Z,89.000000
2023-10-04T01:15:17.146Z,89.000000
2023-10-04T01:20:17.092Z,90.000000
2023-10-04T01:25:17.159Z,89.000000
2023-10-04T01:30:17.063Z,89.000000
2023-10-04T01:35:17.165Z,89.000000
2023-10-04T01:40:17.074Z,89.000000
2023-10-04T01:45:17.252Z,89.000000
2023-10-04T01:50:17.199Z,89.000000
2023-10-04T01:55:17.204Z,89.000000
2023-10-04T02:00:17.323Z,89.000000
2023-10-04T02:05:17.200Z,90.000000
2023-10-04T02:10:17.189Z,91.000000
2023-10-04T02:15:17.436Z,91.000000
2023-10-04T02:20:17.336Z,91.000000
2023-10-04T02:25:17.341Z,91.000000
2023-10-04T02:30:17.266Z,91.000000
2023-10-04T02:35:17.239Z,91.000000
2023-10-04T02:40:17.300Z,91.000000
2023-10-04T02:45:17.379Z,91.000000
2023-10-04T02:50:17.318Z,91.000000
2023-10-04T02:55:17.346Z,90.000000
2023-10-04T03:00:17.379Z,90.000000
2023-10-04T03:05:17.228Z,90.000000
2023-10-04T03:10:17.438Z,89.000000
2023-10-04T03:15:17.593Z,90.000000
2023-10-04T03:20:17.399Z,90.000000
2023-10-04T03:25:17.399Z,90.000000
2023-10-04T03:30:17.489Z,90.000000
2023-10-04T03:35:17.421Z,90.000000
2023-10-04T03:40:17.403Z,89.000000
2023-10-04T03:45:15.453Z,90.000000
2023-10-04T03:50:15.409Z,90.000000
2023-10-04T03:55:15.434Z,90.000000
2023-10-04T04:00:17.422Z,90.000000
2023-10-04T04:05:16.559Z,90.000000
2023-10-04T04:10:16.627Z,90.000000
2023-10-04T04:15:16.711Z,90.000000
2023-10-04T04:20:16.518Z,90.000000
2023-10-04T04:25:16.659Z,90.000000
2023-10-04T04:30:16.587Z,90.000000
2023-10-04T04:35:16.616Z,90.000000
2023-10-04T04:40:16.587Z,90.000000
2023-10-04T04:45:16.724Z,91.000000
2023-10-04T04:50:16.627Z,91.000000
2023-10-04T04:55:16.615Z,91.000000
2023-10-04T05:00:16.798Z,90.000000
2023-10-04T05:05:16.797Z,90.000000
2023-10-04T05:10:16.623Z,90.000000
2023-10-04T05:15:16.637Z,91.000000
2023-10-04T05:20:16.637Z,92.000000
2023-10-04T05:25:16.667Z,92.000000
2023-10-04T05:30:16.720Z,92.000000
2023-10-04T05:35:16.666Z,92.000000
2023-10-04T05:40:18.595Z,92.000000
2023-10-04T05:45:16.842Z,92.000000
2023-10-04T05:50:16.977Z,93.000000
2023-10-04T05:55:16.757Z,93.000000
2023-10-04T06:00:16.785Z,93.000000
2023-10-04T06:05:16.802Z,93.000000
2023-10-04T06:10:16.843Z,93.000000
2023-10-04T06:15:16.831Z,93.000000
2023-10-04T06:20:16.894Z,93.000000
2023-10-04T06:25:16.869Z,92.000000
2023-10-04T06:30:17.832Z,92.000000
2023-10-04T06:35:16.793Z,93.000000
2023-10-04T06:40:16.871Z,93.000000
2023-10-04T06:45:17.008Z,93.000000
2023-10-04T06:50:16.861Z,94.000000
2023-10-04T06:55:16.926Z,93.000000
2023-10-04T07:00:16.908Z,93.000000
2023-10-04T07:05:17.149Z,93.000000
2023-10-04T07:10:17.092Z,93.000000
2023-10-04T07:15:16.949Z,93.000000
2023-10-04T07:20:16.947Z,93.000000
2023-10-04T07:25:16.901Z,94.000000
2023-10-04T07:30:16.955Z,94.000000
2023-10-04T07:35:17.025Z,93.000000
2023-10-04T07:40:16.973Z,94.000000
2023-10-04T07:45:17.215Z,94.000000
2023-10-04T07:50:17.022Z,94.000000
2023-10-04T07:55:17.026Z,94.000000
2023-10-04T08:00:17.209Z,94.000000
2023-10-04T08:05:17.080Z,94.000000
2023-10-04T08:10:17.066Z,94.000000
2023-10-04T08:15:17.051Z,94.000000
2023-10-04T08:20:17.125Z,94.000000
2023-10-04T08:25:17.111Z,94.000000
2023-10-04T08:30:17.246Z,94.000000
2023-10-04T08:35:17.180Z,95.000000
2023-10-04T08:40:17.092Z,95.000000
2023-10-04T08:45:17.216Z,94.000000
2023-10-04T08:50:17.240Z,94.000000
2023-10-04T08:55:17.125Z,94.000000
2023-10-04T09:00:27.463Z,95.000000
2023-10-04T09:05:17.083Z,94.000000
2023-10-04T09:10:17.294Z,94.000000
2023-10-04T09:15:17.376Z,94.000000
2023-10-04T09:20:17.284Z,94.000000
2023-10-04T09:25:17.291Z,95.000000
2023-10-04T09:30:17.283Z,95.000000
2023-10-04T09:35:17.427Z,95.000000
2023-10-04T09:40:17.450Z,95.000000
2023-10-04T09:45:17.247Z,95.000000
2023-10-04T09:50:17.403Z,95.000000
2023-10-04T09:55:17.364Z,95.000000
2023-10-04T10:00:17.290Z,95.000000
2023-10-04T10:05:17.452Z,95.000000
2023-10-04T10:10:17.403Z,95.000000
2023-10-04T10:15:17.543Z,95.000000
2023-10-04T10:20:17.409Z,95.000000
2023-10-04T10:25:17.377Z,95.000000
2023-10-04T10:30:17.482Z,95.000000
2023-10-04T10:35:17.458Z,96.000000
2023-10-04T10:40:15.565Z,95.000000
2023-10-04T10:45:15.715Z,95.000000
2023-10-04T10:50:15.483Z,95.000000
2023-10-04T10:55:15.444Z,95.000000
2023-10-04T11:00:15.547Z,96.000000
2023-10-04T11:05:15.564Z,95.000000
2023-10-04T11:10:16.117Z,96.000000
2023-10-04T11:15:15.484Z,96.000000
2023-10-04T11:20:15.812Z,96.000000
2023-10-04T11:25:15.849Z,96.000000
2023-10-04T11:30:16.396Z,96.000000
2023-10-04T11:35:15.677Z,96.000000
2023-10-04T11:40:15.819Z,96.000000
2023-10-04T11:45:15.672Z,96.000000
2023-10-04T11:50:15.746Z,96.000000
2023-10-04T11:55:15.775Z,96.000000
2023-10-04T12:00:15.743Z,96.000000
2023-10-04T12:05:15.837Z,96.000000
2023-10-04T12:10:15.723Z,96.000000
2023-10-04T12:15:15.763Z,96.000000
2023-10-04T12:20:15.674Z,96.000000
2023-10-04T12:25:15.725Z,96.000000
2023-10-04T12:30:15.659Z,96.000000
2023-10-04T12:35:15.703Z,96.000000
2023-10-04T12:40:15.727Z,95.000000
2023-10-04T12:45:15.876Z,95.000000
2023-10-04T12:50:15.827Z,94.000000
2023-10-04T12:55:15.994Z,92.000000
2023-10-04T13:00:15.924Z,92.000000
2023-10-04T13:05:16.179Z,90.000000
2023-10-04T13:10:15.966Z,89.000000
2023-10-04T13:15:15.822Z,88.000000
2023-10-04T13:20:15.758Z,87.000000
2023-10-04T13:25:15.932Z,86.000000
2023-10-04T13:30:16.013Z,86.000000
2023-10-04T13:35:16.006Z,85.000000
2023-10-04T13:40:15.899Z,84.000000
2023-10-04T13:45:15.825Z,84.000000
2023-10-04T13:50:15.878Z,83.000000
2023-10-04T13:55:15.931Z,83.000000
2023-10-04T14:00:15.980Z,83.000000
2023-10-04T14:05:16.101Z,82.000000
2023-10-04T14:10:15.917Z,82.000000
2023-10-04T14:15:15.919Z,82.000000
2023-10-04T14:20:15.947Z,82.000000
2023-10-04T14:25:15.982Z,82.000000
2023-10-04T14:30:15.972Z,82.000000
2023-10-04T14:35:16.026Z,82.000000
2023-10-04T14:40:16.081Z,82.000000
2023-10-04T14:45:15.964Z,82.000000
2023-10-04T14:50:16.132Z,82.000000
2023-10-04T14:55:16.018Z,82.000000
2023-10-04T15:00:16.177Z,81.000000
2023-10-04T15:05:16.249Z,80.000000
2023-10-04T15:10:16.045Z,81.000000
2023-10-04T15:15:16.157Z,81.000000
2023-10-04T15:20:17.591Z,81.000000
2023-10-04T15:25:16.209Z,81.000000
2023-10-04T15:30:16.260Z,82.000000
2023-10-04T15:35:16.968Z,81.000000
2023-10-04T15:40:16.274Z,80.000000
2023-10-04T15:45:16.146Z,80.000000
2023-10-04T15:50:16.157Z,80.000000
2023-10-04T15:55:16.278Z,78.000000
2023-10-04T16:00:16.141Z,77.000000
2023-10-04T16:05:16.161Z,77.000000
2023-10-04T16:10:16.359Z,77.000000
2023-10-04T16:15:16.189Z,77.000000
2023-10-04T16:20:16.255Z,77.000000
2023-10-04T16:25:16.297Z,78.000000
2023-10-04T16:30:16.276Z,79.000000
2023-10-04T16:35:16.293Z,79.000000
2023-10-04T16:40:16.295Z,78.000000
2023-10-04T16:45:16.392Z,78.000000
2023-10-04T16:50:16.325Z,78.000000
2023-10-04T16:55:16.326Z,78.000000
2023-10-04T17:00:16.300Z,78.000000
2023-10-04T17:05:16.590Z,77.000000
2023-10-04T17:10:16.396Z,77.000000
2023-10-04T17:15:16.351Z,77.000000
2023-10-04T17:20:16.422Z,78.000000
2023-10-04T17:25:16.369Z,77.000000
2023-10-04T17:30:16.495Z,77.000000
2023-10-04T17:35:16.393Z,77.000000
2023-10-04T17:40:16.526Z,77.000000
2023-10-04T17:45:17.427Z,77.000000
2023-10-04T17:50:16.701Z,77.000000
2023-10-04T17:55:16.518Z,76.000000
2023-10-04T18:00:16.485Z,76.000000
2023-10-04T18:05:16.445Z,76.000000
2023-10-04T18:10:16.616Z,76.000000
2023-10-04T18:15:16.640Z,75.000000
2023-10-04T18:20:16.747Z,76.000000
2023-10-04T18:25:16.558Z,76.000000
2023-10-04T18:30:16.522Z,76.000000
2023-10-04T18:35:16.591Z,76.000000
2023-10-04T18:40:16.675Z,76.000000
2023-10-04T18:45:16.652Z,76.000000
2023-10-04T18:50:16.627Z,76.000000
2023-10-04T18:55:16.594Z,76.000000
2023-10-04T19:00:16.602Z,75.000000
2023-10-04T19:05:16.598Z,75.000000
2023-10-04T19:10:16.740Z,74.000000
2023-10-04T19:15:17.008Z,74.000000
2023-10-04T19:20:16.971Z,74.000000
2023-10-04T19:25:16.987Z,75.000000
2023-10-04T19:30:16.810Z,74.000000
2023-10-04T19:35:17.256Z,73.000000
2023-10-04T19:40:16.811Z,74.000000
2023-10-04T19:45:16.959Z,73.000000
2023-10-04T19:50:16.749Z,72.000000
2023-10-04T19:55:16.785Z,70.000000
2023-10-04T20:00:16.830Z,72.000000
2023-10-04T20:05:16.696Z,74.000000
2023-10-04T20:10:16.791Z,75.000000
2023-10-04T20:15:16.951Z,75.000000
2023-10-04T20:20:17.160Z,76.000000
2023-10-04T20:25:17.019Z,76.000000
2023-10-04T20:30:16.931Z,77.000000
2023-10-04T20:35:16.846Z,78.000000
2023-10-04T20:40:17.092Z,78.000000
2023-10-04T20:45:16.993Z,78.000000
2023-10-04T20:50:17.154Z,79.000000
2023-10-04T20:55:16.967Z,80.000000
2023-10-04T21:00:17.020Z,79.000000
2023-10-04T21:05:16.853Z,79.000000
2023-10-04T21:10:17.277Z,80.000000
2023-10-04T21:15:17.047Z,81.000000
2023-10-04T21:20:17.069Z,82.000000
2023-10-04T21:25:17.002Z,82.000000
2023-10-04T21:30:16.972Z,83.000000
2023-10-04T21:35:17.106Z,83.000000
2023-10-04T21:40:17.017Z,83.000000
2023-10-04T21:45:17.030Z,83.000000
2023-10-04T21:50:17.029Z,84.000000
2023-10-04T21:55:17.109Z,84.000000
2023-10-04T22:00:17.274Z,84.000000
2023-10-04T22:05:17.032Z,85.000000
2023-10-04T22:10:17.150Z,85.000000
2023-10-04T22:15:17.057Z,86.000000
2023-10-04T22:20:17.115Z,86.000000
2023-10-04T22:25:17.229Z,86.000000
2023-10-04T22:30:17.194Z,87.000000
2023-10-04T22:35:17.131Z,87.000000
2023-10-04T22:40:17.234Z,87.000000
2023-10-04T22:45:17.294Z,87.000000
2023-10-04T22:50:17.161Z,88.000000
2023-10-04T22:55:17.571Z,88.000000
2023-10-04T23:00:17.279Z,88.000000
2023-10-04T23:05:17.220Z,88.000000
2023-10-04T23:10:17.486Z,88.000000
2023-10-04T23:15:17.218Z,88.000000
2023-10-04T23:20:17.145Z,88.000000
2023-10-04T23:25:17.323Z,88.000000
2023-10-04T23:30:17.237Z,89.000000
2023-10-04T23:35:17.290Z,88.000000
2023-10-04T23:40:17.388Z,89.000000
2023-10-04T23:45:17.310Z,89.000000
2023-10-04T23:50:17.331Z,89.000000
2023-10-04T23:55:17.502Z,89.000000
